createdAt,value
2022-09-26T00:00:14.416Z,10.79
2022-09-26T00:02:40.786Z,10.81
2022-09-26T00:05:07.924Z,10.84
2022-09-26T00:07:35.543Z,10.86
2022-09-26T00:10:01.803Z,10.89
2022-09-26T00:12:28.100Z,10.88
2022-09-26T00:14:54.338Z,10.88
2022-09-26T00:17:20.612Z,10.87
2022-09-26T00:19:46.867Z,10.87
2022-09-26T00:22:13.134Z,10.86
2022-09-26T00:24:40.742Z,10.84
2022-09-26T00:27:06.996Z,10.84
2022-09-26T00:29:33.263Z,10.82
2022-09-26T00:31:59.569Z,10.79
2022-09-26T00:34:25.811Z,10.77
2022-09-26T00:36:52.109Z,10.76
2022-09-26T00:39:18.375Z,10.79
2022-09-26T00:41:45.996Z,10.78
2022-09-26T00:44:39.161Z,10.82
2022-09-26T00:47:07.315Z,10.85
2022-09-26T00:49:35.798Z,10.87
2022-09-26T00:52:04.672Z,10.89
2022-09-26T00:54:31.574Z,10.88
2022-09-26T00:57:02.263Z,10.89
2022-09-26T00:59:30.836Z,10.91
2022-09-26T01:01:58.739Z,10.93
2022-09-26T01:04:25.563Z,10.95
2022-09-26T01:06:51.973Z,10.97
2022-09-26T01:09:18.245Z,10.98
2022-09-26T01:11:44.531Z,10.99
2022-09-26T01:14:12.764Z,10.99
2022-09-26T01:16:39.879Z,11.03
2022-09-26T01:19:12.138Z,11.03
2022-09-26T01:22:00.730Z,11.05
2022-09-26T01:24:36.069Z,11.07
2022-09-26T01:27:13.924Z,11.08
2022-09-26T01:30:00.855Z,11.09
2022-09-26T01:32:33.598Z,11.11
2022-09-26T01:35:03.596Z,11.12
2022-09-26T01:37:34.131Z,11.13
2022-09-26T01:40:05.872Z,11.13
2022-09-26T01:42:36.028Z,11.15
2022-09-26T01:45:07.155Z,11.16
2022-09-26T01:47:40.239Z,11.18
2022-09-26T01:50:12.284Z,11.17
2022-09-26T01:52:40.837Z,11.18
2022-09-26T01:55:09.956Z,11.16
2022-09-26T01:57:39.938Z,11.17
2022-09-26T02:00:07.825Z,11.18
2022-09-26T02:02:38.153Z,11.18
2022-09-26T02:05:06.954Z,11.19
2022-09-26T02:07:36.790Z,11.18
2022-09-26T02:10:05.215Z,11.19
2022-09-26T02:12:32.843Z,11.22
2022-09-26T02:15:00.718Z,11.21
2022-09-26T02:17:30.009Z,11.21
2022-09-26T02:19:58.851Z,11.18
2022-09-26T02:22:27.075Z,11.19
2022-09-26T02:24:53.833Z,11.18
2022-09-26T02:27:20.207Z,11.17
2022-09-26T02:29:46.591Z,11.15
2022-09-26T02:32:15.235Z,11.15
2022-09-26T02:34:42.760Z,11.14
2022-09-26T02:37:11.200Z,11.11
2022-09-26T02:39:37.628Z,11.08
2022-09-26T02:42:09.011Z,11.07
2022-09-26T02:44:43.138Z,11.07
2022-09-26T02:47:24.993Z,11.06
2022-09-26T02:50:09.003Z,11.03
2022-09-26T02:52:44.768Z,11.02
2022-09-26T02:55:15.362Z,11.00
2022-09-26T02:57:46.435Z,11.03
2022-09-26T03:00:16.158Z,11.05
2022-09-26T03:02:46.138Z,11.07
2022-09-26T03:05:15.167Z,11.06
2022-09-26T03:07:45.138Z,11.04
2022-09-26T03:10:12.254Z,11.01
2022-09-26T03:12:39.512Z,10.99
2022-09-26T03:15:07.316Z,10.99
2022-09-26T03:17:36.121Z,10.98
2022-09-26T03:20:05.460Z,11.00
2022-09-26T03:22:31.851Z,11.00
2022-09-26T03:24:59.842Z,10.99
2022-09-26T03:27:26.198Z,10.99
2022-09-26T03:29:52.537Z,10.97
2022-09-26T03:32:18.803Z,10.97
2022-09-26T03:34:45.099Z,10.98
2022-09-26T03:37:11.435Z,10.98
2022-09-26T03:39:37.715Z,10.95
2022-09-26T03:42:05.488Z,11.04
2022-09-26T03:44:31.766Z,10.99
2022-09-26T03:46:58.047Z,11.00
2022-09-26T03:49:24.387Z,10.99
2022-09-26T03:51:50.647Z,10.97
2022-09-26T03:54:16.930Z,10.97
2022-09-26T03:56:43.194Z,10.97
2022-09-26T03:59:10.919Z,10.95
2022-09-26T04:01:37.334Z,10.95
2022-09-26T04:04:03.650Z,10.94
2022-09-26T04:06:29.970Z,10.97
2022-09-26T04:08:56.262Z,10.94
2022-09-26T04:11:23.490Z,10.93
2022-09-26T04:13:52.441Z,10.94
2022-09-26T04:16:21.575Z,10.92
2022-09-26T04:18:47.943Z,10.94
2022-09-26T04:21:14.431Z,10.94
2022-09-26T04:23:41.294Z,11.01
2022-09-26T04:26:08.798Z,10.95
2022-09-26T04:28:35.071Z,10.93
2022-09-26T04:31:02.038Z,10.95
2022-09-26T04:33:29.975Z,10.97
2022-09-26T04:35:59.071Z,10.93
2022-09-26T04:38:25.366Z,10.93
2022-09-26T04:40:51.692Z,10.93
2022-09-26T04:43:18.000Z,10.91
2022-09-26T04:45:44.343Z,10.89
2022-09-26T04:48:10.614Z,10.90
2022-09-26T04:50:38.219Z,10.91
2022-09-26T04:53:04.509Z,10.89
2022-09-26T04:55:30.799Z,10.88
2022-09-26T04:57:57.070Z,10.91
2022-09-26T05:00:23.322Z,10.91
2022-09-26T05:02:49.591Z,10.87
2022-09-26T05:05:15.971Z,10.88
2022-09-26T05:07:43.647Z,10.87
2022-09-26T05:10:10.506Z,10.85
2022-09-26T05:12:36.938Z,10.86
2022-09-26T05:15:03.415Z,10.86
2022-09-26T05:17:29.704Z,10.90
2022-09-26T05:19:55.994Z,10.88
2022-09-26T05:22:22.266Z,10.91
2022-09-26T05:24:49.882Z,10.90
2022-09-26T05:27:16.147Z,10.91
2022-09-26T05:29:42.406Z,10.89
2022-09-26T05:32:08.688Z,10.93
2022-09-26T05:34:34.955Z,10.91
2022-09-26T05:37:01.279Z,10.92
2022-09-26T05:39:27.556Z,10.91
2022-09-26T05:41:55.162Z,10.90
2022-09-26T05:44:21.438Z,10.95
2022-09-26T05:46:47.781Z,10.94
2022-09-26T05:49:14.177Z,10.95
2022-09-26T05:51:40.499Z,10.98
2022-09-26T05:54:06.938Z,10.95
2022-09-26T05:56:33.327Z,10.97
2022-09-26T05:59:00.959Z,10.94
2022-09-26T06:01:27.372Z,10.95
2022-09-26T06:03:53.690Z,10.95
2022-09-26T06:06:20.482Z,10.95
2022-09-26T06:08:46.958Z,10.94
2022-09-26T06:11:14.644Z,10.94
2022-09-26T06:13:41.575Z,10.96
2022-09-26T06:16:12.025Z,10.93
2022-09-26T06:18:38.637Z,11.00
2022-09-26T06:21:06.080Z,11.00
2022-09-26T06:23:32.770Z,11.04
2022-09-26T06:25:59.032Z,11.03
2022-09-26T06:28:25.352Z,11.02
2022-09-26T06:30:51.839Z,11.06
2022-09-26T06:33:19.677Z,11.03
2022-09-26T06:35:46.016Z,11.04
2022-09-26T06:38:12.319Z,11.08
2022-09-26T06:40:38.651Z,11.07
2022-09-26T06:43:04.986Z,11.08
2022-09-26T06:45:31.259Z,11.05
2022-09-26T06:48:00.181Z,11.07
2022-09-26T06:50:27.791Z,11.08
2022-09-26T06:52:54.071Z,11.14
2022-09-26T06:55:20.324Z,11.10
2022-09-26T06:57:46.605Z,11.10
2022-09-26T07:00:14.107Z,11.19
2022-09-26T07:02:48.745Z,11.16
2022-09-26T07:05:15.014Z,11.16
2022-09-26T07:07:42.796Z,11.15
2022-09-26T07:10:09.225Z,11.18
2022-09-26T07:12:35.489Z,11.17
2022-09-26T07:15:01.769Z,11.25
2022-09-26T07:17:28.063Z,11.28
2022-09-26T07:19:54.407Z,11.32
2022-09-26T07:22:20.777Z,11.40
2022-09-26T07:24:48.391Z,11.45
2022-09-26T07:27:14.823Z,11.53
2022-09-26T07:29:41.148Z,11.52
2022-09-26T07:32:07.414Z,11.51
2022-09-26T07:34:33.679Z,11.58
2022-09-26T07:36:59.952Z,11.64
2022-09-26T07:39:26.208Z,11.57
2022-09-26T07:41:53.818Z,11.59
2022-09-26T07:45:09.288Z,11.58
2022-09-26T07:47:06.402Z,11.58
2022-09-26T07:49:32.780Z,11.55
2022-09-26T07:51:59.047Z,11.62
2022-09-26T07:54:25.302Z,11.54
2022-09-26T07:56:51.588Z,11.58
2022-09-26T07:59:19.181Z,11.59
2022-09-26T08:01:45.513Z,11.62
2022-09-26T08:04:12.058Z,11.67
2022-09-26T08:06:38.347Z,11.58
2022-09-26T08:09:04.635Z,11.56
2022-09-26T08:11:30.925Z,11.59
2022-09-26T08:13:57.207Z,11.58
2022-09-26T08:16:24.919Z,11.65
2022-09-26T08:18:51.913Z,11.67
2022-09-26T08:21:18.592Z,11.70
2022-09-26T08:23:45.206Z,11.78
2022-09-26T08:26:11.499Z,11.80
2022-09-26T08:28:37.988Z,11.81
2022-09-26T08:31:04.718Z,11.82
2022-09-26T08:33:33.370Z,11.88
2022-09-26T08:36:02.449Z,11.92
2022-09-26T08:38:28.710Z,11.92
2022-09-26T08:41:00.312Z,11.92
2022-09-26T08:43:33.629Z,12.02
2022-09-26T08:46:02.853Z,12.09
2022-09-26T08:48:48.048Z,12.09
2022-09-26T08:51:24.298Z,12.12
2022-09-26T08:53:55.599Z,12.09
2022-09-26T08:56:27.812Z,12.14
2022-09-26T08:58:55.020Z,12.19
2022-09-26T09:01:24.450Z,12.18
2022-09-26T09:03:55.740Z,12.11
2022-09-26T09:06:22.134Z,12.17
2022-09-26T09:08:49.670Z,12.19
2022-09-26T09:11:22.067Z,12.19
2022-09-26T09:13:57.357Z,12.27
2022-09-26T09:16:32.407Z,12.34
2022-09-26T09:19:03.363Z,12.34
2022-09-26T09:21:39.319Z,12.40
2022-09-26T09:24:13.917Z,12.41
2022-09-26T09:29:49.323Z,12.51
2022-09-26T09:32:18.761Z,12.49
2022-09-26T09:34:50.251Z,12.58
2022-09-26T09:37:21.317Z,12.58
2022-09-26T09:39:49.058Z,12.62
2022-09-26T09:42:19.062Z,12.70
2022-09-26T09:44:47.342Z,12.71
2022-09-26T09:47:14.673Z,12.74
2022-09-26T09:49:41.093Z,12.78
2022-09-26T09:52:17.544Z,12.79
2022-09-26T09:54:48.456Z,12.75
2022-09-26T09:57:29.607Z,12.77
2022-09-26T10:00:02.934Z,12.79
2022-09-26T10:02:31.794Z,12.79
2022-09-26T10:05:04.742Z,12.79
2022-09-26T10:07:32.333Z,12.79
2022-09-26T10:09:58.589Z,12.79
2022-09-26T10:12:26.104Z,12.84
2022-09-26T10:14:54.842Z,12.86
2022-09-26T10:17:21.947Z,12.88
2022-09-26T10:19:48.474Z,12.91
2022-09-26T10:22:17.316Z,12.99
2022-09-26T10:24:46.191Z,13.08
2022-09-26T10:27:13.935Z,13.17
2022-09-26T10:29:40.403Z,13.22
2022-09-26T10:32:06.875Z,13.24
2022-09-26T10:34:33.762Z,13.23
2022-09-26T10:37:17.762Z,13.32
2022-09-26T10:39:51.349Z,13.21
2022-09-26T10:42:18.858Z,13.15
2022-09-26T10:44:45.478Z,13.15
2022-09-26T10:47:14.274Z,13.11
2022-09-26T10:49:43.748Z,13.13
2022-09-26T10:52:17.530Z,13.03
2022-09-26T10:54:48.089Z,12.98
2022-09-26T10:57:19.573Z,12.94
2022-09-26T10:59:47.071Z,12.95
2022-09-26T11:02:16.347Z,12.96
2022-09-26T11:04:45.255Z,12.90
2022-09-26T11:07:20.003Z,12.93
2022-09-26T11:09:47.663Z,12.92
2022-09-26T11:12:20.365Z,12.93
2022-09-26T11:14:46.648Z,12.97
2022-09-26T11:17:14.777Z,13.02
2022-09-26T11:19:44.367Z,13.01
2022-09-26T11:22:17.596Z,13.06
2022-09-26T11:24:47.139Z,13.07
2022-09-26T11:27:19.635Z,12.97
2022-09-26T11:29:47.596Z,12.94
2022-09-26T11:32:16.025Z,12.93
2022-09-26T11:34:42.423Z,12.90
2022-09-26T11:37:26.343Z,12.89
2022-09-26T11:40:07.326Z,12.82
2022-09-26T11:42:45.262Z,12.80
2022-09-26T11:45:15.845Z,12.80
2022-09-26T11:48:00.121Z,12.75
2022-09-26T11:50:36.118Z,12.77
2022-09-26T11:53:11.209Z,12.74
2022-09-26T11:55:44.142Z,12.72
2022-09-26T11:58:19.460Z,12.77
2022-09-26T12:00:51.352Z,12.76
2022-09-26T12:03:28.712Z,12.78
2022-09-26T12:05:58.673Z,12.77
2022-09-26T12:08:29.399Z,12.79
2022-09-26T12:11:04.307Z,12.77
2022-09-26T12:13:36.743Z,12.76
2022-09-26T12:16:06.520Z,12.74
2022-09-26T12:18:35.503Z,12.69
2022-09-26T12:21:08.096Z,12.64
2022-09-26T12:23:37.118Z,12.60
2022-09-26T12:26:08.263Z,12.63
2022-09-26T12:28:43.344Z,12.66
2022-09-26T12:31:15.992Z,12.55
2022-09-26T12:33:53.890Z,12.53
2022-09-26T12:36:25.526Z,12.50
2022-09-26T12:38:59.830Z,12.54
2022-09-26T12:41:36.038Z,12.51
2022-09-26T12:44:15.756Z,12.58
2022-09-26T12:46:52.333Z,12.53
2022-09-26T12:49:30.478Z,12.50
2022-09-26T12:52:03.291Z,12.48
2022-09-26T12:54:35.482Z,12.49
2022-09-26T12:57:05.080Z,12.53
2022-09-26T12:59:41.106Z,12.57
2022-09-26T13:02:22.582Z,12.55
2022-09-26T13:05:16.355Z,12.53
2022-09-26T13:07:49.823Z,12.54
2022-09-26T13:10:24.558Z,12.53
2022-09-26T13:13:01.739Z,12.44
2022-09-26T13:15:32.189Z,12.46
2022-09-26T13:18:01.801Z,12.50
2022-09-26T13:20:31.486Z,12.46
2022-09-26T13:22:58.682Z,12.49
2022-09-26T13:25:29.511Z,12.46
2022-09-26T13:27:58.542Z,12.43
2022-09-26T13:30:25.855Z,12.48
2022-09-26T13:32:57.024Z,12.46
2022-09-26T13:35:24.472Z,12.53
2022-09-26T13:38:00.247Z,12.47
2022-09-26T13:40:34.349Z,12.47
2022-09-26T13:43:07.013Z,12.44
2022-09-26T13:45:42.114Z,12.47
2022-09-26T13:48:12.808Z,12.50
2022-09-26T13:50:42.883Z,12.52
2022-09-26T13:53:13.399Z,12.52
2022-09-26T13:55:39.651Z,12.44
2022-09-26T13:58:06.620Z,12.42
2022-09-26T14:00:40.365Z,12.48
2022-09-26T14:03:25.526Z,12.46
2022-09-26T14:06:06.378Z,12.43
2022-09-26T14:08:33.770Z,12.43
2022-09-26T14:11:05.456Z,12.43
2022-09-26T14:13:33.363Z,12.45
2022-09-26T14:16:03.973Z,12.45
2022-09-26T14:18:37.847Z,12.51
2022-09-26T14:21:11.567Z,12.53
2022-09-26T14:23:39.753Z,12.56
2022-09-26T14:26:10.323Z,12.45
2022-09-26T14:28:37.325Z,12.50
2022-09-26T14:31:11.395Z,12.51
2022-09-26T14:33:37.831Z,12.44
2022-09-26T14:36:23.338Z,12.40
2022-09-26T14:38:50.104Z,12.42
2022-09-26T14:41:17.885Z,12.37
2022-09-26T14:43:44.242Z,12.38
2022-09-26T14:46:15.499Z,12.42
2022-09-26T14:48:42.618Z,12.46
2022-09-26T14:51:23.812Z,12.45
2022-09-26T14:53:53.812Z,12.49
2022-09-26T14:56:30.353Z,12.55
2022-09-26T14:59:14.352Z,12.52
2022-09-26T15:01:41.375Z,12.52
2022-09-26T15:04:12.651Z,12.46
2022-09-26T15:06:42.339Z,12.50
2022-09-26T15:09:09.211Z,12.44
2022-09-26T15:11:40.027Z,12.43
2022-09-26T15:14:12.554Z,12.43
2022-09-26T15:16:41.780Z,12.46
2022-09-26T15:19:12.217Z,12.45
2022-09-26T15:21:42.120Z,12.41
2022-09-26T15:24:22.178Z,12.41
2022-09-26T15:26:49.231Z,12.42
2022-09-26T15:29:15.902Z,12.39
2022-09-26T15:31:43.087Z,12.36
2022-09-26T15:34:11.083Z,12.27
2022-09-26T15:36:38.508Z,12.35
2022-09-26T15:39:25.646Z,12.22
2022-09-26T15:41:51.919Z,12.25
2022-09-26T15:44:19.047Z,12.15
2022-09-26T15:46:47.001Z,12.09
2022-09-26T15:49:13.307Z,12.10
2022-09-26T15:51:40.107Z,12.10
2022-09-26T15:54:12.143Z,12.07
2022-09-26T15:56:40.520Z,12.06
2022-09-26T15:59:09.567Z,12.02
2022-09-26T16:01:39.521Z,11.98
2022-09-26T16:04:14.557Z,11.97
2022-09-26T16:06:42.134Z,11.95
2022-09-26T16:09:16.788Z,11.97
2022-09-26T16:11:44.074Z,12.03
2022-09-26T16:14:20.736Z,11.95
2022-09-26T16:16:47.020Z,11.86
2022-09-26T16:19:27.982Z,11.82
2022-09-26T16:21:55.443Z,11.90
2022-09-26T16:24:28.165Z,11.90
2022-09-26T16:26:54.770Z,11.87
2022-09-26T16:29:28.853Z,11.87
2022-09-26T16:31:55.142Z,11.90
2022-09-26T16:34:22.599Z,11.91
2022-09-26T16:36:49.711Z,11.89
2022-09-26T16:39:19.711Z,11.95
2022-09-26T16:42:08.019Z,11.89
2022-09-26T16:44:37.296Z,11.90
2022-09-26T16:47:04.935Z,11.85
2022-09-26T16:49:32.618Z,11.86
2022-09-26T16:52:10.143Z,11.83
2022-09-26T16:54:36.419Z,11.80
2022-09-26T16:57:04.943Z,11.82
2022-09-26T16:59:31.287Z,11.80
2022-09-26T17:02:00.444Z,11.80
2022-09-26T17:04:27.618Z,11.78
2022-09-26T17:06:53.882Z,11.78
2022-09-26T17:09:20.886Z,11.78
2022-09-26T17:11:48.184Z,11.78
2022-09-26T17:14:16.808Z,11.77
2022-09-26T17:16:43.902Z,11.77
2022-09-26T17:19:11.432Z,11.75
2022-09-26T17:21:37.702Z,11.75
2022-09-26T17:24:04.215Z,11.76
2022-09-26T17:26:30.509Z,11.79
2022-09-26T17:28:56.798Z,11.72
2022-09-26T17:31:24.677Z,11.73
2022-09-26T17:33:52.994Z,11.79
2022-09-26T17:36:20.963Z,11.74
2022-09-26T17:38:47.358Z,11.73
2022-09-26T17:41:13.671Z,11.70
2022-09-26T17:43:39.942Z,11.70
2022-09-26T17:46:06.437Z,11.69
2022-09-26T17:48:34.184Z,11.67
2022-09-26T17:51:01.538Z,11.70
2022-09-26T17:53:32.704Z,11.68
2022-09-26T17:55:59.157Z,11.70
2022-09-26T17:58:25.491Z,11.68
2022-09-26T18:00:51.853Z,11.70
2022-09-26T18:03:21.280Z,11.68
2022-09-26T18:05:48.976Z,11.66
2022-09-26T18:08:18.143Z,11.67
2022-09-26T18:10:47.297Z,11.64
2022-09-26T18:13:15.850Z,11.61
2022-09-26T18:15:42.167Z,11.60
2022-09-26T18:18:11.792Z,11.60
2022-09-26T18:20:38.600Z,11.62
2022-09-26T18:23:07.468Z,11.63
2022-09-26T18:25:34.279Z,11.60
2022-09-26T18:28:03.703Z,11.60
2022-09-26T18:30:30.224Z,11.60
2022-09-26T18:32:56.917Z,11.58
2022-09-26T18:35:23.952Z,11.56
2022-09-26T18:37:50.252Z,11.55
2022-09-26T18:40:18.069Z,11.52
2022-09-26T18:42:44.580Z,11.51
2022-09-26T18:45:13.020Z,11.49
2022-09-26T18:47:40.122Z,11.47
2022-09-26T18:50:07.111Z,11.45
2022-09-26T18:52:33.384Z,11.42
2022-09-26T18:54:59.931Z,11.42
2022-09-26T18:57:27.548Z,11.40
2022-09-26T18:59:53.822Z,11.38
2022-09-26T19:02:21.250Z,11.37
2022-09-26T19:04:47.881Z,11.40
2022-09-26T19:07:20.845Z,11.35
2022-09-26T19:09:47.739Z,11.34
2022-09-26T19:12:14.890Z,11.32
2022-09-26T19:14:43.020Z,11.29
2022-09-26T19:17:09.302Z,11.27
2022-09-26T19:19:35.582Z,11.28
2022-09-26T19:22:03.568Z,11.28
2022-09-26T19:24:31.537Z,11.27
2022-09-26T19:26:59.066Z,11.28
2022-09-26T19:29:28.152Z,11.30
2022-09-26T19:31:55.856Z,11.31
2022-09-26T19:34:22.363Z,11.32
2022-09-26T19:36:49.550Z,11.36
2022-09-26T19:39:15.892Z,11.37
2022-09-26T19:41:42.354Z,11.40
2022-09-26T19:44:08.699Z,11.40
2022-09-26T19:46:35.819Z,11.45
2022-09-26T19:49:04.347Z,11.43
2022-09-26T19:51:31.720Z,11.40
2022-09-26T19:53:59.734Z,11.45
2022-09-26T19:56:28.976Z,11.42
2022-09-26T19:58:56.534Z,11.41
2022-09-26T20:01:22.991Z,11.39
2022-09-26T20:03:49.951Z,11.37
2022-09-26T20:06:19.331Z,11.39
2022-09-26T20:08:45.594Z,11.42
2022-09-26T20:11:11.886Z,11.37
2022-09-26T20:13:38.213Z,11.33
2022-09-26T20:16:04.659Z,11.35
2022-09-26T20:18:30.947Z,11.35
2022-09-26T20:20:58.341Z,11.37
2022-09-26T20:23:26.646Z,11.36
2022-09-26T20:25:54.351Z,11.32
2022-09-26T20:28:20.640Z,11.30
2022-09-26T20:30:46.969Z,11.30
2022-09-26T20:33:13.590Z,11.30
2022-09-26T20:35:41.191Z,11.30
2022-09-26T20:38:11.250Z,11.30
2022-09-26T20:40:39.187Z,11.29
2022-09-26T20:43:06.963Z,11.26
2022-09-26T20:45:35.629Z,11.27
2022-09-26T20:48:02.304Z,11.29
2022-09-26T20:50:33.850Z,11.27
2022-09-26T20:53:00.726Z,11.29
2022-09-26T20:55:26.995Z,11.25
2022-09-26T20:57:54.606Z,11.28
2022-09-26T21:00:20.893Z,11.27
2022-09-26T21:02:49.738Z,11.24
2022-09-26T21:05:17.475Z,11.55
2022-09-26T21:07:44.082Z,11.39
2022-09-26T21:10:20.318Z,11.54
2022-09-26T21:12:46.582Z,11.44
2022-09-26T21:15:14.466Z,11.36
2022-09-26T21:17:41.534Z,11.37
2022-09-26T21:20:13.342Z,11.68
2022-09-26T21:22:39.631Z,11.66
2022-09-26T21:25:06.823Z,11.68
2022-09-26T21:27:33.140Z,11.55
2022-09-26T21:29:59.404Z,11.46
2022-09-26T21:32:27.060Z,11.52
2022-09-26T21:34:55.775Z,11.45
2022-09-26T21:37:22.084Z,11.38
2022-09-26T21:39:48.349Z,11.51
2022-09-26T21:42:14.696Z,11.42
2022-09-26T21:44:42.815Z,11.47
2022-09-26T21:47:09.491Z,11.37
2022-09-26T21:49:37.108Z,11.45
2022-09-26T21:52:06.166Z,11.28
2022-09-26T21:54:34.707Z,11.46
2022-09-26T21:57:03.585Z,11.37
2022-09-26T21:59:30.114Z,11.33
2022-09-26T22:01:56.464Z,11.36
2022-09-26T22:04:22.821Z,11.39
2022-09-26T22:06:50.459Z,11.28
2022-09-26T22:09:16.805Z,11.25
2022-09-26T22:11:43.186Z,11.29
2022-09-26T22:14:09.501Z,11.14
2022-09-26T22:16:35.802Z,11.19
2022-09-26T22:19:02.162Z,11.21
2022-09-26T22:21:28.419Z,11.17
2022-09-26T22:23:56.195Z,11.07
2022-09-26T22:26:22.502Z,10.93
2022-09-26T22:28:48.779Z,11.13
2022-09-26T22:31:15.475Z,10.97
2022-09-26T22:33:41.833Z,11.07
2022-09-26T22:36:08.325Z,10.92
2022-09-26T22:38:35.365Z,10.86
2022-09-26T22:41:04.268Z,10.80
2022-09-26T22:43:31.194Z,10.59
2022-09-26T22:46:00.562Z,10.72
2022-09-26T22:48:29.156Z,10.89
2022-09-26T22:50:55.407Z,10.87
2022-09-26T22:53:21.672Z,10.62
2022-09-26T22:55:51.086Z,10.49
2022-09-26T22:58:18.698Z,10.46
2022-09-26T23:00:44.965Z,10.60
2022-09-26T23:03:11.217Z,10.65
2022-09-26T23:05:39.308Z,10.46
2022-09-26T23:08:05.618Z,10.33
2022-09-26T23:10:31.891Z,10.30
2022-09-26T23:12:58.163Z,10.19
2022-09-26T23:15:25.855Z,10.18
2022-09-26T23:17:52.124Z,10.15
2022-09-26T23:20:18.386Z,10.14
2022-09-26T23:22:44.655Z,10.18
2022-09-26T23:25:10.941Z,10.14
2022-09-26T23:27:37.323Z,10.16
2022-09-26T23:30:03.842Z,10.20
2022-09-26T23:32:31.460Z,10.17
2022-09-26T23:34:57.706Z,10.14
2022-09-26T23:37:23.968Z,10.15
2022-09-26T23:39:50.230Z,10.15
2022-09-26T23:42:16.499Z,10.14
2022-09-26T23:44:42.776Z,10.18
2022-09-26T23:47:09.035Z,10.17
2022-09-26T23:49:36.655Z,10.17
2022-09-26T23:52:02.915Z,10.19
2022-09-26T23:54:29.206Z,10.21
2022-09-26T23:56:55.466Z,10.16
2022-09-26T23:59:21.710Z,10.13
